^^
Station Historical Data
Daily Summary for December 5, 2017 Units:  English    Metric   Both
« Previous Day
Next Day »
Daily Weekly Monthly Yearly Custom
  High: Low: Average:
Temperature: 54.4 °F 43.5 °F 50.1 °F
Dew Point: 52.5 °F 39.9 °F 47.5 °F
Humidity: 95 % 87 % 91 %
Wind Speed: 8.2 mph 0.0 mph 1.4 mph
Wind Gust: 13.8 mph - -
Wind:- - SSW
Pressure: 30.35 in 29.82 in -
Precipitation: 0.26 in    
Historical Graphs
 
 
Tabular Data for December 5, 2017
Time Temperature Dew Point Pressure Wind Wind Speed Wind Gust Humidity Rainfall Rate (Hourly) solar Conditions
00:03 43.8 °F 40.5 °F 30.35 in Calm   1.2 mph 88 % 0.00 in 0.0 W/m2 OVC
00:08 43.8 °F 40.2 °F 30.35 in Calm   1.2 mph 87 % 0.00 in 0.0 W/m2 OVC
00:13 43.5 °F 39.9 °F 30.35 in Calm   1.2 mph 87 % 0.00 in 0.0 W/m2 OVC
00:18 43.7 °F 40.4 °F 30.35 in Calm     88 % 0.00 in 0.0 W/m2 OVC
00:23 43.8 °F 40.5 °F 30.34 in Calm     88 % 0.00 in 0.0 W/m2 OVC
00:28 44.0 °F 40.4 °F 30.34 in Calm   3.5 mph 87 % 0.00 in 0.0 W/m2 OVC
00:33 44.0 °F 40.4 °F 30.34 in SSE 2.2 mph 5.8 mph 87 % 0.00 in 0.0 W/m2 OVC
00:38 44.2 °F 40.6 °F 30.34 in SSE 0.2 mph 5.8 mph 87 % 0.00 in 0.0 W/m2 OVC
00:43 44.3 °F 40.7 °F 30.34 in Calm   6.9 mph 87 % 0.00 in 0.0 W/m2 OVC
00:48 44.4 °F 40.8 °F 30.33 in Calm   6.9 mph 87 % 0.00 in 0.0 W/m2 OVC
00:53 44.4 °F 40.8 °F 30.33 in Calm   3.5 mph 87 % 0.00 in 0.0 W/m2 OVC
00:58 44.3 °F 40.7 °F 30.33 in Calm   1.2 mph 87 % 0.00 in 0.0 W/m2 OVC
01:03 44.3 °F 40.7 °F 30.33 in SSE 0.3 mph 4.6 mph 87 % 0.00 in 0.0 W/m2 BKN
01:08 44.4 °F 40.8 °F 30.33 in Calm   4.6 mph 87 % 0.00 in 0.0 W/m2 BKN
01:13 44.4 °F 40.8 °F 30.33 in Calm   3.5 mph 87 % 0.00 in 0.0 W/m2 BKN
01:18 44.4 °F 40.8 °F 30.33 in SSE 1.5 mph 3.5 mph 87 % 0.00 in 0.0 W/m2 BKN
01:23 44.5 °F 40.9 °F 30.33 in SSE 0.8 mph 4.6 mph 87 % 0.00 in 0.0 W/m2 BKN
01:28 44.4 °F 40.8 °F 30.33 in SSE 0.5 mph 5.8 mph 87 % 0.00 in 0.0 W/m2 BKN
01:33 44.4 °F 40.8 °F 30.33 in Calm   5.8 mph 87 % 0.00 in 0.0 W/m2 BKN
01:38 44.3 °F 40.7 °F 30.33 in Calm   4.6 mph 87 % 0.00 in 0.0 W/m2 BKN
01:43 44.3 °F 40.7 °F 30.33 in South 2.7 mph 6.9 mph 87 % 0.00 in 0.0 W/m2 BKN
01:48 44.4 °F 40.8 °F 30.33 in South 0.2 mph 6.9 mph 87 % 0.00 in 0.0 W/m2 BKN
01:53 44.5 °F 40.9 °F 30.32 in Calm   6.9 mph 87 % 0.00 in 0.0 W/m2 BKN
01:58 44.6 °F 41.0 °F 30.33 in SSE 0.8 mph 6.9 mph 87 % 0.00 in 0.0 W/m2 BKN
02:03 44.7 °F 41.1 °F 30.33 in South 2.2 mph 5.8 mph 87 % 0.00 in 0.0 W/m2 BKN
02:08 44.6 °F 41.0 °F 30.33 in SSE 0.2 mph 5.8 mph 87 % 0.00 in 0.0 W/m2 BKN
02:13 44.5 °F 40.9 °F 30.33 in SSE 0.2 mph 4.6 mph 87 % 0.00 in 0.0 W/m2 BKN
02:18 44.5 °F 40.9 °F 30.32 in SSE 0.3 mph 3.5 mph 87 % 0.00 in 0.0 W/m2 BKN
02:23 44.6 °F 41.0 °F 30.32 in SSE 1.3 mph 6.9 mph 87 % 0.00 in 0.0 W/m2 BKN
02:28 44.7 °F 41.1 °F 30.31 in Calm   6.9 mph 87 % 0.00 in 0.0 W/m2 BKN
02:33 44.8 °F 41.2 °F 30.31 in SSE 0.9 mph 5.8 mph 87 % 0.00 in 0.0 W/m2 BKN
02:38 44.8 °F 41.2 °F 30.31 in SE 0.9 mph 5.8 mph 87 % 0.00 in 0.0 W/m2 OVC
02:43 44.8 °F 41.2 °F 30.30 in Calm   5.8 mph 87 % 0.00 in 0.0 W/m2 OVC
02:48 44.8 °F 41.2 °F 30.30 in SSE 0.5 mph 4.6 mph 87 % 0.00 in 0.0 W/m2 OVC
02:53 44.7 °F 41.1 °F 30.30 in Calm   4.6 mph 87 % 0.00 in 0.0 W/m2 OVC
02:58 44.7 °F 41.1 °F 30.30 in Calm   3.5 mph 87 % 0.00 in 0.0 W/m2 OVC
03:03 44.7 °F 41.1 °F 30.30 in Calm   2.3 mph 87 % 0.00 in 0.0 W/m2 BKN
03:08 44.7 °F 41.1 °F 30.29 in Calm   2.3 mph 87 % 0.00 in 0.0 W/m2 BKN
03:13 44.8 °F 41.2 °F 30.29 in Calm     87 % 0.00 in 0.0 W/m2 BKN
03:18 44.8 °F 41.5 °F 30.28 in Calm   3.5 mph 88 % 0.00 in 0.0 W/m2 BKN
03:23 44.8 °F 41.2 °F 30.28 in Calm   3.5 mph 87 % 0.00 in 0.0 W/m2 BKN
03:29 44.8 °F 41.5 °F 30.28 in Calm   3.5 mph 88 % 0.00 in 0.0 W/m2 BKN
03:34 44.9 °F 41.6 °F 30.28 in Calm   3.5 mph 88 % 0.00 in 0.0 W/m2 BKN
03:39 44.9 °F 41.6 °F 30.28 in Calm   2.3 mph 88 % 0.00 in 0.0 W/m2 BKN
03:44 44.8 °F 41.5 °F 30.28 in SSE 0.9 mph 5.8 mph 88 % 0.00 in 0.0 W/m2 BKN
03:49 44.6 °F 41.3 °F 30.27 in Calm   5.8 mph 88 % 0.00 in 0.0 W/m2 BKN
03:54 44.7 °F 41.4 °F 30.27 in Calm   3.5 mph 88 % 0.00 in 0.0 W/m2 BKN
03:59 44.6 °F 41.3 °F 30.27 in Calm   1.2 mph 88 % 0.00 in 0.0 W/m2 BKN
04:04 44.8 °F 41.8 °F 30.28 in Calm   2.3 mph 89 % 0.00 in 0.0 W/m2 OVC
04:09 44.8 °F 41.5 °F 30.27 in Calm   2.3 mph 88 % 0.00 in 0.0 W/m2 OVC
04:14 45.0 °F 42.0 °F 30.27 in South 1.2 mph 5.8 mph 89 % 0.00 in 0.0 W/m2 OVC
04:15 45.2 °F 42.2 °F 30.27 in Calm   5.8 mph 89 % 0.00 in 0.0 W/m2 OVC
04:20 45.4 °F 42.1 °F 30.27 in Calm   5.8 mph 88 % 0.00 in 0.0 W/m2 OVC
04:26 45.5 °F 42.2 °F 30.26 in South 0.6 mph 5.8 mph 88 % 0.00 in 0.0 W/m2 OVC
04:30 45.5 °F 42.2 °F 30.26 in South 1.1 mph 5.8 mph 88 % 0.00 in 0.0 W/m2 OVC
04:36 45.7 °F 42.3 °F 30.26 in South 1.6 mph 3.5 mph 88 % 0.00 in 0.0 W/m2 OVC
04:41 46.0 °F 42.6 °F 30.25 in SE 1.7 mph 6.9 mph 88 % 0.00 in 0.0 W/m2 OVC
04:46 46.1 °F 42.7 °F 30.25 in SE 2.8 mph 6.9 mph 88 % 0.00 in 0.0 W/m2 OVC
04:51 46.1 °F 42.7 °F 30.25 in SSE 0.3 mph 5.8 mph 88 % 0.00 in 0.0 W/m2 OVC
04:56 46.0 °F 42.6 °F 30.25 in SSE 0.6 mph 4.6 mph 88 % 0.00 in 0.0 W/m2 OVC
05:01 46.0 °F 42.6 °F 30.25 in SSE 1.4 mph 4.6 mph 88 % 0.00 in 0.0 W/m2 OVC
05:06 46.0 °F 42.6 °F 30.25 in SSE 1.5 mph 4.6 mph 88 % 0.00 in 0.0 W/m2 OVC
05:11 46.1 °F 42.7 °F 30.26 in SSE 2.2 mph 5.8 mph 88 % 0.00 in 0.0 W/m2 OVC
05:16 46.1 °F 42.7 °F 30.25 in Calm   5.8 mph 88 % 0.00 in 0.0 W/m2 OVC
05:21 46.1 °F 42.7 °F 30.25 in Calm   4.6 mph 88 % 0.00 in 0.0 W/m2 OVC
05:26 46.1 °F 42.7 °F 30.25 in Calm   3.5 mph 88 % 0.00 in 0.0 W/m2 OVC
05:31 46.1 °F 42.7 °F 30.26 in Calm   2.3 mph 88 % 0.00 in 0.0 W/m2 OVC
05:36 46.2 °F 43.1 °F 30.26 in Calm     89 % 0.00 in 0.0 W/m2 OVC
05:41 46.1 °F 42.7 °F 30.26 in SSE 1.4 mph 3.5 mph 88 % 0.00 in 0.0 W/m2 OVC
05:46 46.2 °F 43.1 °F 30.25 in Calm   3.5 mph 89 % 0.00 in 0.0 W/m2 OVC
05:51 46.2 °F 43.1 °F 30.25 in SSE 2.7 mph 4.6 mph 89 % 0.00 in 0.0 W/m2 OVC
05:56 46.3 °F 43.2 °F 30.25 in Calm   6.9 mph 89 % 0.00 in 0.0 W/m2 OVC
06:01 46.3 °F 43.2 °F 30.24 in South 2.3 mph 6.9 mph 89 % 0.00 in 0.0 W/m2 OVC
06:06 46.3 °F 43.2 °F 30.24 in SSE 2.0 mph 9.2 mph 89 % 0.00 in 0.0 W/m2 OVC
06:11 46.3 °F 43.2 °F 30.24 in Calm   9.2 mph 89 % 0.00 in 0.0 W/m2 OVC
06:16 46.3 °F 43.2 °F 30.24 in SSE 1.2 mph 4.6 mph 89 % 0.00 in 0.0 W/m2 OVC
06:21 46.4 °F 43.3 °F 30.24 in SSE 0.5 mph 4.6 mph 89 % 0.00 in 0.0 W/m2 OVC
06:26 46.4 °F 43.3 °F 30.24 in Calm   4.6 mph 89 % 0.00 in 0.0 W/m2 OVC
06:31 46.4 °F 43.3 °F 30.24 in Calm   2.3 mph 89 % 0.00 in 0.0 W/m2 OVC
06:36 46.5 °F 43.4 °F 30.24 in Calm   4.6 mph 89 % 0.00 in 0.0 W/m2 OVC
06:41 46.5 °F 43.4 °F 30.24 in Calm   4.6 mph 89 % 0.00 in 0.0 W/m2 OVC
06:46 46.6 °F 43.8 °F 30.25 in Calm   2.3 mph 90 % 0.00 in 0.0 W/m2 OVC
06:51 46.5 °F 43.4 °F 30.24 in Calm     89 % 0.00 in 0.0 W/m2 OVC
06:56 46.5 °F 43.4 °F 30.23 in Calm   3.5 mph 89 % 0.00 in 0.0 W/m2 OVC
07:01 46.6 °F 43.8 °F 30.23 in SSE 1.2 mph 3.5 mph 90 % 0.00 in 0.0 W/m2 OVC
07:06 46.7 °F 43.9 °F 30.23 in SSE 0.2 mph 3.5 mph 90 % 0.00 in 0.0 W/m2 OVC
07:16 46.8 °F 44.0 °F 30.23 in Calm   2.3 mph 90 % 0.00 in 0.0 W/m2 OVC
07:21 46.8 °F 44.0 °F 30.23 in Calm   2.3 mph 90 % 0.00 in 0.0 W/m2 OVC
07:26 46.8 °F 44.0 °F 30.22 in Calm   2.3 mph 90 % 0.00 in 0.0 W/m2 OVC
07:31 47.0 °F 44.2 °F 30.23 in Calm     90 % 0.00 in 0.0 W/m2 OVC
07:36 47.2 °F 44.4 °F 30.22 in Calm     90 % 0.00 in 0.0 W/m2 OVC
07:41 47.2 °F 44.4 °F 30.23 in Calm     90 % 0.00 in 0.0 W/m2 OVC
07:46 47.2 °F 44.4 °F 30.22 in Calm     90 % 0.00 in 7.0 W/m2 OVC
07:51 47.3 °F 44.5 °F 30.22 in Calm   1.2 mph 90 % 0.00 in 11.0 W/m2 OVC
07:56 47.3 °F 44.5 °F 30.21 in Calm   1.2 mph 90 % 0.00 in 18.0 W/m2 OVC
08:01 47.3 °F 44.5 °F 30.20 in Calm   1.2 mph 90 % 0.00 in 12.0 W/m2 OVC
08:06 47.3 °F 44.5 °F 30.20 in Calm   1.2 mph 90 % 0.00 in 19.0 W/m2 OVC
08:11 47.5 °F 44.7 °F 30.20 in Calm   1.2 mph 90 % 0.00 in 21.0 W/m2 OVC
08:16 47.5 °F 45.0 °F 30.20 in Calm   1.2 mph 91 % 0.00 in 26.0 W/m2 OVC
08:21 47.6 °F 45.1 °F 30.19 in Calm     91 % 0.00 in 21.0 W/m2 OVC
08:26 47.8 °F 45.3 °F 30.19 in Calm   1.2 mph 91 % 0.00 in 12.0 W/m2 OVC
08:31 47.8 °F 45.3 °F 30.18 in SSE 0.1 mph 3.5 mph 91 % 0.00 in 14.0 W/m2 OVC
08:36 47.9 °F 45.4 °F 30.18 in SSE 0.5 mph 3.5 mph 91 % 0.00 in 14.0 W/m2 OVC
08:41 48.0 °F 45.5 °F 30.18 in Calm   4.6 mph 91 % 0.00 in 11.0 W/m2 OVC
08:46 48.1 °F 45.6 °F 30.18 in Calm   4.6 mph 91 % 0.00 in 11.0 W/m2 OVC
08:51 48.1 °F 45.6 °F 30.17 in Calm   2.3 mph 91 % 0.00 in 16.0 W/m2 OVC
08:56 48.2 °F 45.7 °F 30.17 in SSE 0.1 mph   91 % 0.00 in 16.0 W/m2 OVC
09:02 48.3 °F 45.8 °F 30.17 in South 1.4 mph 3.5 mph 91 % 0.00 in 18.0 W/m2 OVC
09:07 48.4 °F 45.9 °F 30.17 in Calm   3.5 mph 91 % 0.00 in 16.0 W/m2 OVC
09:12 48.4 °F 45.9 °F 30.17 in Calm   3.5 mph 91 % 0.00 in 12.0 W/m2 OVC
09:17 48.5 °F 46.3 °F 30.17 in South 0.7 mph 2.3 mph 92 % 0.00 in 19.0 W/m2 OVC
09:22 48.7 °F 46.5 °F 30.17 in South 2.2 mph 6.9 mph 92 % 0.00 in 26.0 W/m2 OVC
09:27 48.8 °F 46.6 °F 30.17 in South 3.9 mph 6.9 mph 92 % 0.00 in 32.0 W/m2 OVC
09:32 49.0 °F 46.8 °F 30.17 in SSE 5.4 mph 6.9 mph 92 % 0.00 in 33.0 W/m2 OVC
09:37 49.1 °F 46.9 °F 30.17 in South 4.7 mph 9.2 mph 92 % 0.00 in 46.0 W/m2 OVC
09:42 49.3 °F 47.1 °F 30.16 in SSE 3.3 mph 9.2 mph 92 % 0.00 in 37.0 W/m2 OVC
09:47 49.4 °F 47.2 °F 30.16 in SSE 0.4 mph 6.9 mph 92 % 0.00 in 76.0 W/m2 OVC
09:52 49.5 °F 47.3 °F 30.16 in SSE 4.0 mph 5.8 mph 92 % 0.00 in 79.0 W/m2 OVC
09:57 49.7 °F 47.5 °F 30.16 in South 2.7 mph 8.1 mph 92 % 0.00 in 58.0 W/m2 OVC
10:02 49.8 °F 47.6 °F 30.16 in South 3.8 mph 8.1 mph 92 % 0.00 in 65.0 W/m2 OVC
10:07 50.0 °F 47.8 °F 30.16 in SSE 2.1 mph 6.9 mph 92 % 0.00 in 49.0 W/m2 OVC
10:12 50.2 °F 48.0 °F 30.16 in South 0.6 mph 8.1 mph 92 % 0.00 in 37.0 W/m2 OVC
10:17 50.3 °F 48.1 °F 30.15 in South 1.5 mph 8.1 mph 92 % 0.00 in 46.0 W/m2 OVC
10:22 50.6 °F 48.4 °F 30.15 in South 4.8 mph 8.1 mph 92 % 0.00 in 56.0 W/m2 OVC
10:27 50.8 °F 48.6 °F 30.15 in SSW 4.1 mph 8.1 mph 92 % 0.00 in 60.0 W/m2 OVC
10:32 51.0 °F 48.8 °F 30.15 in South 3.1 mph 6.9 mph 92 % 0.00 in 47.0 W/m2 OVC
10:37 51.1 °F 48.9 °F 30.15 in SSW 2.5 mph 9.2 mph 92 % 0.00 in 54.0 W/m2 OVC
10:42 51.1 °F 48.9 °F 30.14 in South 5.1 mph 9.2 mph 92 % 0.00 in 46.0 W/m2 OVC
10:47 51.1 °F 48.9 °F 30.14 in SSW 5.6 mph 8.1 mph 92 % 0.00 in 56.0 W/m2 OVC
10:52 51.1 °F 48.9 °F 30.14 in SSW 3.7 mph 8.1 mph 92 % 0.00 in 39.0 W/m2 OVC
10:57 51.1 °F 48.9 °F 30.13 in SSW 3.1 mph 8.1 mph 92 % 0.00 in 39.0 W/m2 OVC
11:02 51.1 °F 48.9 °F 30.14 in SSW 2.4 mph 5.8 mph 92 % 0.00 in 19.0 W/m2 OVC
11:07 51.1 °F 48.9 °F 30.13 in Calm   5.8 mph 92 % 0.00 in 19.0 W/m2 OVC
11:12 51.2 °F 49.0 °F 30.13 in Calm   3.5 mph 92 % 0.00 in 25.0 W/m2 OVC
11:17 51.2 °F 49.0 °F 30.12 in Calm   3.5 mph 92 % 0.00 in 25.0 W/m2 OVC
11:20 51.2 °F 49.0 °F 30.12 in SSW 0.7 mph 3.5 mph 92 % 0.00 in 23.0 W/m2 OVC
11:25 51.3 °F 49.1 °F 30.12 in Calm   3.5 mph 92 % 0.00 in 21.0 W/m2 OVC
11:30 51.2 °F 49.0 °F 30.12 in Calm   3.5 mph 92 % 0.00 in 21.0 W/m2 OVC
11:35 51.2 °F 49.0 °F 30.12 in Calm     92 % 0.00 in 21.0 W/m2 OVC
11:40 51.1 °F 48.9 °F 30.11 in Calm     92 % 0.00 in 21.0 W/m2 OVC
11:45 51.2 °F 49.0 °F 30.11 in Calm     92 % 0.00 in 25.0 W/m2 OVC
11:50 51.1 °F 48.9 °F 30.11 in Calm     92 % 0.00 in 30.0 W/m2 OVC
11:55 51.0 °F 48.8 °F 30.10 in Calm     92 % 0.00 in 40.0 W/m2 OVC
12:00 51.1 °F 49.1 °F 30.10 in Calm     93 % 0.00 in 30.0 W/m2 OVC
12:05 51.0 °F 49.0 °F 30.10 in Calm     93 % 0.00 in 30.0 W/m2 OVC
12:10 50.9 °F 48.9 °F 30.09 in Calm     93 % 0.00 in 33.0 W/m2 OVC
12:15 51.0 °F 49.0 °F 30.08 in Calm     93 % 0.00 in 46.0 W/m2 OVC
12:20 51.1 °F 49.1 °F 30.08 in Calm     93 % 0.00 in 60.0 W/m2 OVC
12:25 51.2 °F 49.2 °F 30.07 in Calm     93 % 0.00 in 49.0 W/m2 OVC
12:30 51.3 °F 49.6 °F 30.07 in Calm     94 % 0.00 in 40.0 W/m2 OVC
12:35 51.4 °F 49.7 °F 30.06 in Calm     94 % 0.00 in 56.0 W/m2 OVC
12:40 51.5 °F 49.8 °F 30.06 in Calm     94 % 0.00 in 51.0 W/m2 OVC
12:45 51.7 °F 50.0 °F 30.05 in Calm     94 % 0.00 in 40.0 W/m2 OVC
12:50 51.7 °F 50.0 °F 30.05 in Calm     94 % 0.00 in 70.0 W/m2 OVC
12:55 51.8 °F 50.1 °F 30.05 in Calm     94 % 0.00 in 62.0 W/m2 OVC
13:00 52.0 °F 50.3 °F 30.05 in Calm     94 % 0.00 in 76.0 W/m2 OVC
13:05 52.2 °F 50.5 °F 30.04 in SSW 0.7 mph 3.5 mph 94 % 0.00 in 69.0 W/m2 OVC
13:10 52.4 °F 50.7 °F 30.04 in SSW 3.0 mph 5.0 mph 94 % 0.00 in 56.0 W/m2 OVC
13:15 52.5 °F 50.8 °F 30.04 in SSW 1.4 mph 4.6 mph 94 % 0.00 in 35.0 W/m2 OVC
13:20 52.5 °F 50.8 °F 30.04 in SW 3.1 mph 4.6 mph 94 % 0.00 in 23.0 W/m2 OVC
13:25 52.8 °F 51.1 °F 30.04 in SSW 7.8 mph 11.5 mph 94 % 0.00 in 19.0 W/m2 OVC
13:30 53.1 °F 51.1 °F 30.04 in SSW 8.2 mph 11.5 mph 93 % 0.00 in 23.0 W/m2 OVC
13:35 53.3 °F 51.3 °F 30.03 in SW 2.9 mph 11.5 mph 93 % 0.00 in 23.0 W/m2 OVC
13:40 53.5 °F 51.2 °F 30.03 in SW 2.5 mph 11.5 mph 92 % 0.00 in 14.0 W/m2 OVC
13:45 53.6 °F 51.3 °F 30.03 in SW 2.7 mph 4.6 mph 92 % 0.00 in 16.0 W/m2 OVC
13:50 53.6 °F 51.0 °F 30.03 in Calm   4.6 mph 91 % 0.00 in 14.0 W/m2 OVC
13:55 53.6 °F 51.0 °F 30.03 in Calm   4.6 mph 91 % 0.00 in 21.0 W/m2 OVC
14:00 53.6 °F 51.0 °F 30.03 in Calm   2.3 mph 91 % 0.00 in 26.0 W/m2 OVC
14:10 53.6 °F 51.0 °F 30.02 in SW 2.5 mph 4.6 mph 91 % 0.00 in 25.0 W/m2 OVC
14:15 53.7 °F 51.1 °F 30.02 in SSW 4.6 mph 9.2 mph 91 % 0.00 in 30.0 W/m2 OVC
14:20 53.8 °F 50.9 °F 30.02 in SW 4.6 mph 10.4 mph 90 % 0.00 in 18.0 W/m2 OVC
14:25 53.9 °F 51.0 °F 30.01 in SSW 3.0 mph 11.5 mph 90 % 0.00 in 16.0 W/m2 OVC
14:30 53.9 °F 50.7 °F 30.01 in SW 5.5 mph 11.5 mph 89 % 0.00 in 9.0 W/m2 OVC
14:35 53.9 °F 50.7 °F 30.02 in SSW 5.2 mph 11.5 mph 89 % 0.00 in 9.0 W/m2 OVC
14:40 54.0 °F 50.8 °F 30.02 in SSW 2.5 mph 11.5 mph 89 % 0.00 in 12.0 W/m2 OVC
14:45 54.0 °F 50.8 °F 30.02 in SW 4.3 mph 11.5 mph 89 % 0.00 in 14.0 W/m2 OVC
14:50 54.1 °F 50.6 °F 30.02 in SW 3.0 mph 11.5 mph 88 % 0.00 in 14.0 W/m2 OVC
14:55 54.1 °F 50.6 °F 30.02 in SSW 3.9 mph 9.2 mph 88 % 0.00 in 14.0 W/m2 OVC
14:57 54.1 °F 50.6 °F 30.01 in SSW 4.1 mph 9.2 mph 88 % 0.00 in 14.0 W/m2 OVC
15:02 54.1 °F 50.6 °F 30.01 in SSW 4.3 mph 9.2 mph 88 % 0.00 in 16.0 W/m2 OVC
15:07 54.1 °F 50.6 °F 30.00 in SSW 3.2 mph 8.1 mph 88 % 0.00 in 16.0 W/m2 OVC
15:12 54.0 °F 50.5 °F 30.00 in SSW 2.0 mph 6.9 mph 88 % 0.00 in 16.0 W/m2 OVC
15:17 54.1 °F 50.6 °F 30.00 in SSW 5.9 mph 11.5 mph 88 % 0.00 in 14.0 W/m2 OVC
15:22 54.2 °F 50.7 °F 29.99 in South 3.3 mph 11.5 mph 88 % 0.00 in 18.0 W/m2 OVC
15:27 54.2 °F 50.7 °F 29.99 in SSW 2.9 mph 11.5 mph 88 % 0.00 in 16.0 W/m2 OVC
15:32 54.2 °F 50.7 °F 29.99 in SSW 4.5 mph 11.5 mph 88 % 0.00 in 14.0 W/m2 OVC
15:37 54.2 °F 50.7 °F 29.99 in SSW 3.5 mph 6.9 mph 88 % 0.00 in 12.0 W/m2 OVC
15:42 54.3 °F 50.8 °F 29.99 in SSW 6.5 mph 9.2 mph 88 % 0.00 in 12.0 W/m2 OVC
15:47 54.3 °F 50.8 °F 29.99 in SSW 2.8 mph 9.2 mph 88 % 0.00 in 5.0 W/m2 OVC
15:52 54.3 °F 50.8 °F 29.99 in SW 5.6 mph 9.2 mph 88 % 0.00 in 5.0 W/m2 OVC
15:57 54.3 °F 50.8 °F 29.99 in SSW 4.5 mph 8.1 mph 88 % 0.00 in 0.0 W/m2 OVC
16:02 54.3 °F 50.8 °F 29.98 in SSW 4.0 mph 8.1 mph 88 % 0.00 in 5.0 W/m2 OVC
16:07 54.3 °F 50.8 °F 29.99 in SW 3.3 mph 9.2 mph 88 % 0.00 in 0.0 W/m2 OVC
16:12 54.1 °F 50.6 °F 29.99 in South 4.2 mph 9.2 mph 88 % 0.00 in 0.0 W/m2 OVC
16:17 54.0 °F 50.5 °F 29.97 in Calm   8.1 mph 88 % 0.00 in 0.0 W/m2 OVC
16:22 53.8 °F 50.6 °F 29.98 in Calm   8.1 mph 89 % 0.00 in 0.0 W/m2 OVC
16:27 53.8 °F 50.6 °F 29.98 in SSW 0.1 mph 3.5 mph 89 % 0.00 in 0.0 W/m2 OVC
16:32 53.9 °F 50.7 °F 29.98 in SSW 3.2 mph 9.2 mph 89 % 0.00 in 0.0 W/m2 OVC
16:37 53.9 °F 50.7 °F 29.98 in South 3.2 mph 9.2 mph 89 % 0.00 in 0.0 W/m2 OVC
16:42 53.9 °F 50.7 °F 29.97 in SSW 2.7 mph 8.1 mph 89 % 0.00 in 0.0 W/m2 OVC
16:47 53.9 °F 50.7 °F 29.97 in SSW 3.8 mph 8.1 mph 89 % 0.00 in 0.0 W/m2 OVC
16:52 53.9 °F 50.7 °F 29.97 in SSW 0.7 mph 5.8 mph 89 % 0.00 in 0.0 W/m2 OVC
16:57 53.9 °F 51.0 °F 29.97 in SSW 1.8 mph 8.1 mph 90 % 0.01 in 0.0 W/m2 RA
17:02 53.9 °F 51.0 °F 29.97 in South 5.1 mph 8.1 mph 90 % 0.01 in 0.0 W/m2 RA
17:07 53.7 °F 50.8 °F 29.96 in SSW 1.5 mph 6.9 mph 90 % 0.02 in 0.0 W/m2 RA
17:12 53.6 °F 50.7 °F 29.96 in South 3.2 mph 6.9 mph 90 % 0.02 in 0.0 W/m2 RA
17:17 53.5 °F 50.6 °F 29.96 in SSW 2.5 mph 5.8 mph 90 % 0.02 in 0.0 W/m2 OVC
17:18 53.5 °F 50.6 °F 29.96 in SSW 2.5 mph 5.8 mph 90 % 0.02 in 0.0 W/m2 OVC
17:23 53.4 °F 50.8 °F 29.96 in Calm   5.8 mph 91 % 0.03 in 0.0 W/m2 RA
17:28 53.4 °F 50.8 °F 29.96 in SW 2.2 mph 3.5 mph 91 % 0.03 in 0.0 W/m2 RA
17:33 53.3 °F 50.7 °F 29.96 in Calm   3.5 mph 91 % 0.04 in 0.0 W/m2 RA
17:34 53.3 °F 50.7 °F 29.96 in Calm   3.5 mph 91 % 0.04 in 0.0 W/m2 RA
17:39 53.3 °F 51.0 °F 29.96 in SSW 1.7 mph 5.8 mph 92 % 0.04 in 0.0 W/m2 RA
17:44 53.3 °F 51.0 °F 29.96 in SSW 0.5 mph 6.9 mph 92 % 0.06 in 0.0 W/m2 RA
17:49 53.3 °F 51.0 °F 29.95 in Calm   6.9 mph 92 % 0.06 in 0.0 W/m2 RA
17:54 53.2 °F 50.9 °F 29.95 in SSW 1.6 mph 4.6 mph 92 % 0.07 in 0.0 W/m2 RA
17:59 53.2 °F 50.9 °F 29.95 in SSW 2.0 mph 4.6 mph 92 % 0.07 in 0.0 W/m2 RA
18:04 53.2 °F 50.9 °F 29.95 in SW 1.0 mph 4.6 mph 92 % 0.07 in 0.0 W/m2 -RA
18:09 53.1 °F 50.8 °F 29.95 in Calm   4.6 mph 92 % 0.07 in 0.0 W/m2 -RA
18:14 53.1 °F 51.1 °F 29.95 in Calm   5.8 mph 93 % 0.08 in 0.0 W/m2 -RA
18:19 53.1 °F 51.1 °F 29.94 in Calm   5.8 mph 93 % 0.08 in 0.0 W/m2 -RA
18:24 53.1 °F 51.1 °F 29.95 in Calm   3.5 mph 93 % 0.07 in 0.0 W/m2 -RA
18:29 53.0 °F 51.0 °F 29.95 in Calm   1.2 mph 93 % 0.07 in 0.0 W/m2 -RA
18:34 53.0 °F 51.0 °F 29.95 in Calm     93 % 0.07 in 0.0 W/m2 -RA
18:39 53.0 °F 51.0 °F 29.95 in Calm     93 % 0.06 in 0.0 W/m2 -RA
18:44 52.9 °F 50.9 °F 29.94 in Calm     93 % 0.06 in 0.0 W/m2 -RA
18:49 52.8 °F 50.8 °F 29.94 in Calm     93 % 0.07 in 0.0 W/m2 -RA
18:54 52.7 °F 50.7 °F 29.93 in Calm     93 % 0.06 in 0.0 W/m2 -RA
18:59 52.7 °F 51.0 °F 29.93 in Calm     94 % 0.05 in 0.0 W/m2 -RA
19:04 52.6 °F 50.9 °F 29.93 in Calm     94 % 0.05 in 0.0 W/m2 -RA
19:09 52.5 °F 50.8 °F 29.94 in Calm     94 % 0.05 in 0.0 W/m2 -RA
19:14 52.4 °F 50.7 °F 29.94 in Calm     94 % 0.05 in 0.0 W/m2 -RA
19:19 52.4 °F 50.7 °F 29.94 in Calm     94 % 0.05 in 0.0 W/m2 -RA
19:24 52.5 °F 50.8 °F 29.94 in Calm   1.2 mph 94 % 0.06 in 0.0 W/m2 -RA
19:29 52.4 °F 50.7 °F 29.93 in Calm   3.5 mph 94 % 0.06 in 0.0 W/m2 -RA
19:34 52.4 °F 50.7 °F 29.92 in Calm   3.5 mph 94 % 0.06 in 0.0 W/m2 -RA
19:39 52.5 °F 50.8 °F 29.91 in Calm   1.2 mph 94 % 0.07 in 0.0 W/m2 -RA
19:44 52.6 °F 50.9 °F 29.91 in South 4.3 mph 9.2 mph 94 % 0.07 in 0.0 W/m2 -RA
19:49 52.6 °F 50.9 °F 29.90 in SSW 2.0 mph 9.2 mph 94 % 0.06 in 0.0 W/m2 -RA
19:54 52.8 °F 51.4 °F 29.90 in South 3.1 mph 9.2 mph 95 % 0.07 in 0.0 W/m2 -RA
19:59 52.9 °F 51.5 °F 29.90 in SSW 2.6 mph 6.9 mph 95 % 0.07 in 0.0 W/m2 -RA
20:04 53.1 °F 51.4 °F 29.90 in South 5.8 mph 10.4 mph 94 % 0.07 in 0.0 W/m2 -RA
20:09 53.2 °F 51.5 °F 29.89 in South 4.4 mph 10.4 mph 94 % 0.07 in 0.0 W/m2 -RA
20:14 53.4 °F 51.7 °F 29.88 in South 2.9 mph 10.4 mph 94 % 0.06 in 0.0 W/m2 -RA
20:19 53.5 °F 51.8 °F 29.89 in South 7.3 mph 10.4 mph 94 % 0.07 in 0.0 W/m2 -RA
20:24 53.8 °F 52.1 °F 29.89 in WSW 3.8 mph 10.4 mph 94 % 0.06 in 0.0 W/m2 -RA
20:29 54.0 °F 52.3 °F 29.89 in SW 3.9 mph 10.4 mph 94 % 0.06 in 0.0 W/m2 -RA
20:34 54.1 °F 52.4 °F 29.89 in SSW 5.4 mph 10.4 mph 94 % 0.06 in 0.0 W/m2 -RA
20:39 54.2 °F 52.5 °F 29.89 in SSW 5.5 mph 11.5 mph 94 % 0.06 in 0.0 W/m2 -RA
20:44 54.2 °F 52.5 °F 29.88 in South 3.0 mph 11.5 mph 94 % 0.05 in 0.0 W/m2 -RA
20:50 54.2 °F 52.5 °F 29.87 in South 4.9 mph 10.4 mph 94 % 0.05 in 0.0 W/m2 -RA
20:55 54.2 °F 52.5 °F 29.87 in SSW 1.2 mph 10.4 mph 94 % 0.04 in 0.0 W/m2 -RA
21:00 54.2 °F 52.5 °F 29.87 in SW 0.6 mph 10.4 mph 94 % 0.04 in 0.0 W/m2 -RA
21:10 54.2 °F 52.2 °F 29.88 in SW 0.6 mph 5.8 mph 93 % 0.04 in 0.0 W/m2 -RA
21:15 54.3 °F 52.3 °F 29.88 in Calm   4.6 mph 93 % 0.04 in 0.0 W/m2 -RA
21:20 54.3 °F 52.3 °F 29.88 in WSW 6.6 mph 13.8 mph 93 % 0.03 in 0.0 W/m2 -RA
21:25 54.4 °F 52.4 °F 29.88 in WSW 2.6 mph 13.8 mph 93 % 0.03 in 0.0 W/m2 -RA
21:26 54.4 °F 52.4 °F 29.88 in SW 1.7 mph 13.8 mph 93 % 0.03 in 0.0 W/m2 -RA
21:31 54.4 °F 52.4 °F 29.88 in WSW 3.7 mph 10.4 mph 93 % 0.03 in 0.0 W/m2 -RA
21:36 54.3 °F 52.3 °F 29.87 in West 3.9 mph 9.2 mph 93 % 0.02 in 0.0 W/m2 OVC
21:37 54.3 °F 52.3 °F 29.87 in SW 4.0 mph 9.2 mph 93 % 0.02 in 0.0 W/m2 OVC
21:42 54.2 °F 52.2 °F 29.86 in SW 0.5 mph 6.9 mph 93 % 0.01 in 0.0 W/m2 OVC
21:47 54.2 °F 52.2 °F 29.86 in Calm   6.9 mph 93 % 0.01 in 0.0 W/m2 OVC
21:52 54.0 °F 52.0 °F 29.86 in WSW 0.2 mph 5.8 mph 93 % 0.01 in 0.0 W/m2 OVC
21:57 53.9 °F 51.9 °F 29.86 in WSW 0.2 mph 6.9 mph 93 % 0.01 in 0.0 W/m2 OVC
22:02 53.8 °F 52.1 °F 29.86 in Calm   6.9 mph 94 % 0.00 in 0.0 W/m2 -RA
22:07 53.7 °F 51.7 °F 29.85 in West 1.4 mph 3.5 mph 93 % 0.00 in 0.0 W/m2 -RA
22:12 53.5 °F 51.5 °F 29.85 in Calm   3.5 mph 93 % 0.00 in 0.0 W/m2 -RA
22:17 53.5 °F 51.8 °F 29.85 in Calm   3.5 mph 94 % 0.00 in 0.0 W/m2 -RA
22:22 53.5 °F 51.8 °F 29.85 in Calm   4.6 mph 94 % 0.00 in 0.0 W/m2 -RA
22:27 53.4 °F 51.7 °F 29.84 in Calm   4.6 mph 94 % 0.00 in 0.0 W/m2 -RA
22:33 53.4 °F 51.7 °F 29.84 in Calm     94 % 0.00 in 0.0 W/m2 -RA
22:38 53.4 °F 51.7 °F 29.84 in SSW 0.5 mph   94 % 0.00 in 0.0 W/m2 -RA
22:43 53.4 °F 51.7 °F 29.84 in Calm   3.5 mph 94 % 0.00 in 0.0 W/m2 -RA
22:48 53.3 °F 51.6 °F 29.83 in Calm   3.5 mph 94 % 0.00 in 0.0 W/m2 -RA
22:53 53.4 °F 51.7 °F 29.83 in Calm     94 % 0.00 in 0.0 W/m2 -RA
22:58 53.5 °F 51.8 °F 29.83 in WSW 1.2 mph 3.5 mph 94 % 0.00 in 0.0 W/m2 -RA
23:03 53.6 °F 51.9 °F 29.83 in SSW 2.6 mph 5.8 mph 94 % 0.00 in 0.0 W/m2 OVC
23:08 53.8 °F 52.1 °F 29.83 in SSW 3.4 mph 5.8 mph 94 % 0.00 in 0.0 W/m2 OVC
23:13 53.8 °F 52.1 °F 29.83 in SW 4.1 mph 8.1 mph 94 % 0.00 in 0.0 W/m2 OVC
23:18 53.8 °F 52.1 °F 29.83 in WSW 1.5 mph 9.2 mph 94 % 0.00 in 0.0 W/m2 OVC
23:23 53.8 °F 52.1 °F 29.83 in WSW 1.0 mph 9.2 mph 94 % 0.00 in 0.0 W/m2 OVC
23:28 53.9 °F 52.2 °F 29.83 in WSW 2.1 mph 9.2 mph 94 % 0.00 in 0.0 W/m2 OVC
23:33 53.9 °F 52.2 °F 29.83 in WSW 4.3 mph 9.2 mph 94 % 0.00 in 0.0 W/m2 OVC
23:38 53.8 °F 52.1 °F 29.83 in SSW 1.1 mph 9.2 mph 94 % 0.00 in 0.0 W/m2 BKN
23:43 53.9 °F 52.2 °F 29.83 in SW 2.8 mph 8.1 mph 94 % 0.00 in 0.0 W/m2 BKN
23:48 53.9 °F 51.9 °F 29.82 in WSW 3.0 mph 8.1 mph 93 % 0.00 in 0.0 W/m2 BKN
23:53 53.8 °F 51.8 °F 29.82 in WSW 3.1 mph 11.5 mph 93 % 0.00 in 0.0 W/m2 BKN
23:58 53.8 °F 51.8 °F 29.82 in SW 1.1 mph 11.5 mph 93 % 0.00 in 0.0 W/m2 BKN
Air Products Campus Weather
Compliments of Weather Underground - 3.5 mb